Copper Harbor, Michigan
Current Conditions -  °F | °C
As of 3:53 PM on Friday 31 Oct 2014 (Local Time) from KCMX Reporting Station
Broken Clouds Broken Clouds  
Wind Chill: 23°   Ceiling: 4200
Heat Index: 32°   Visibility: 10mi
Dew Point: 23°   Wind: 12mph
Humidity: 69%   Direction: 350°N
Pressure: 30.43"   Gusts: 20mph
Location:  47.47°N, 87.89°W
Report Text: KCMX 311953Z AUTO 35010G17KT 10SM FEW024 FEW030 BKN042 00/M05 A3043 RMK AO2 SNE20 SLP320 P0000 T00001050
Loading
Personal Weather Stations






























Interactive Weather Map
Tropical Storm Tracking
New forecast layout! Learn more

10-Day Weather Forecast

Advertisements
Track Severe Weather on mobile